Terminal Aerodrome Forecast
Issued by NWS

Home | Current Version | Previous Version | Text Only | Print | Product List | Glossary On
Versions: 1 2 3 4 5 6 7 8 9 10 11 12 13 14 15 16 17
451
FTUS42 KMLB 242059 AAB
TAFLEE
TAF AMD
KLEE 242059Z 2421/2518 05009G15KT P6SM FEW050
     FM242200 05011KT P6SM VCSH SCT040 SCT250
     FM250300 03004KT P6SM SCT050 SCT250
     FM251300 34006KT P6SM SCT030 SCT250=

USA.gov is the U.S. government's official web portal to all federal, state and local government web resources and services.